Terminal Aerodrome Forecast
Issued by NWS Shreveport, LA

Home | Current Version | Previous Version | Text Only | Print | Product List | Glossary On
Versions: 1 2 3 4 5 6 7 8 9 10 11 12 13 14 15 16 17 18 19
000
FTUS44 KSHV 282100 AAA
TAFSHV
TAF AMD
KSHV 282144Z 2822/2918 36005KT P6SM BKN006 BKN060
     FM290300 35003KT P6SM OVC015
     FM290600 05002KT 4SM BR OVC006=

USA.gov is the U.S. government's official web portal to all federal, state and local government web resources and services.